sensor_id;sensor_type;location;lat;lon;timestamp;pressure;altitude;pressure_sealevel;temperature;humidity
73338;BME280;61575;49.908;35.556;2022-09-01T00:00:35;98969.94;;;20.22;58.64
73338;BME280;61575;49.908;35.556;2022-09-01T00:03:39;98967.09;;;20.17;58.65
73338;BME280;61575;49.908;35.556;2022-09-01T00:06:41;98975.63;;;20.09;59.04
73338;BME280;61575;49.908;35.556;2022-09-01T00:09:43;98973.72;;;20.10;59.08
73338;BME280;61575;49.908;35.556;2022-09-01T00:12:45;98982.38;;;20.07;59.54
73338;BME280;61575;49.908;35.556;2022-09-01T00:15:47;98991.13;;;20.09;59.28
73338;BME280;61575;49.908;35.556;2022-09-01T00:18:52;98981.19;;;20.02;59.49
73338;BME280;61575;49.908;35.556;2022-09-01T00:21:54;98993.84;;;19.97;59.87
73338;BME280;61575;49.908;35.556;2022-09-01T00:24:56;98997.63;;;19.96;59.93
73338;BME280;61575;49.908;35.556;2022-09-01T00:27:58;99008.88;;;19.99;59.72
73338;BME280;61575;49.908;35.556;2022-09-01T00:31:06;98998.81;;;20.00;59.77
73338;BME280;61575;49.908;35.556;2022-09-01T00:34:08;99006.75;;;20.01;59.69
73338;BME280;61575;49.908;35.556;2022-09-01T00:37:11;99002.47;;;19.94;60.12
73338;BME280;61575;49.908;35.556;2022-09-01T00:40:15;99001.28;;;19.90;60.29
73338;BME280;61575;49.908;35.556;2022-09-01T00:43:23;98994.06;;;19.84;60.45
73338;BME280;61575;49.908;35.556;2022-09-01T00:46:43;98999.25;;;19.73;60.43
73338;BME280;61575;49.908;35.556;2022-09-01T00:49:51;99000.34;;;19.72;60.44
73338;BME280;61575;49.908;35.556;2022-09-01T00:52:53;98998.19;;;19.63;60.47
73338;BME280;61575;49.908;35.556;2022-09-01T00:55:56;99001.00;;;19.56;60.86
73338;BME280;61575;49.908;35.556;2022-09-01T00:58:58;99005.47;;;19.51;60.87
73338;BME280;61575;49.908;35.556;2022-09-01T01:02:01;98999.41;;;19.37;61.23
73338;BME280;61575;49.908;35.556;2022-09-01T01:05:05;99007.56;;;19.37;61.30
73338;BME280;61575;49.908;35.556;2022-09-01T01:08:08;99005.75;;;19.31;61.37
73338;BME280;61575;49.908;35.556;2022-09-01T01:11:14;99005.16;;;19.29;61.61
73338;BME280;61575;49.908;35.556;2022-09-01T01:14:19;98998.75;;;19.23;61.75
73338;BME280;61575;49.908;35.556;2022-09-01T01:17:24;99004.16;;;19.12;62.19
73338;BME280;61575;49.908;35.556;2022-09-01T01:20:30;98996.59;;;19.14;61.84
73338;BME280;61575;49.908;35.556;2022-09-01T01:24:01;98995.66;;;19.08;62.14
73338;BME280;61575;49.908;35.556;2022-09-01T01:27:07;98994.22;;;19.05;62.21
73338;BME280;61575;49.908;35.556;2022-09-01T01:30:11;98987.72;;;19.06;62.27
73338;BME280;61575;49.908;35.556;2022-09-01T01:33:14;98987.00;;;18.99;62.51
73338;BME280;61575;49.908;35.556;2022-09-01T01:36:20;98988.66;;;19.00;62.63
73338;BME280;61575;49.908;35.556;2022-09-01T01:39:29;98982.84;;;18.97;62.53
73338;BME280;61575;49.908;35.556;2022-09-01T01:42:32;98986.25;;;18.92;62.79
73338;BME280;61575;49.908;35.556;2022-09-01T01:45:34;98987.16;;;18.86;62.97
73338;BME280;61575;49.908;35.556;2022-09-01T01:48:39;98983.03;;;18.84;62.90
73338;BME280;61575;49.908;35.556;2022-09-01T01:51:42;98986.41;;;18.79;62.99
73338;BME280;61575;49.908;35.556;2022-09-01T01:54:46;98987.34;;;18.73;63.26
73338;BME280;61575;49.908;35.556;2022-09-01T01:57:48;98995.56;;;18.66;63.53
73338;BME280;61575;49.908;35.556;2022-09-01T02:00:52;98988.09;;;18.62;63.70
73338;BME280;61575;49.908;35.556;2022-09-01T02:03:58;98995.00;;;18.58;63.69
73338;BME280;61575;49.908;35.556;2022-09-01T02:07:01;98998.88;;;18.50;64.00
73338;BME280;61575;49.908;35.556;2022-09-01T02:10:04;98990.78;;;18.43;64.02
73338;BME280;61575;49.908;35.556;2022-09-01T02:13:07;99005.28;;;18.37;64.23
73338;BME280;61575;49.908;35.556;2022-09-01T02:16:12;98998.84;;;18.32;64.31
73338;BME280;61575;49.908;35.556;2022-09-01T02:19:15;99007.69;;;18.27;64.42
73338;BME280;61575;49.908;35.556;2022-09-01T02:22:21;99007.53;;;18.22;64.65
73338;BME280;61575;49.908;35.556;2022-09-01T02:25:23;99014.22;;;18.20;64.77
73338;BME280;61575;49.908;35.556;2022-09-01T02:28:31;99006.53;;;18.17;64.88
73338;BME280;61575;49.908;35.556;2022-09-01T02:31:35;99014.69;;;18.17;65.17
73338;BME280;61575;49.908;35.556;2022-09-01T02:34:40;99009.47;;;18.15;65.19
73338;BME280;61575;49.908;35.556;2022-09-01T02:37:42;99015.94;;;18.14;65.27
73338;BME280;61575;49.908;35.556;2022-09-01T02:40:44;99014.28;;;18.13;65.37
73338;BME280;61575;49.908;35.556;2022-09-01T02:43:48;99015.13;;;18.13;65.25
73338;BME280;61575;49.908;35.556;2022-09-01T02:46:50;99016.06;;;18.01;66.01
73338;BME280;61575;49.908;35.556;2022-09-01T02:49:55;99015.03;;;18.02;65.66
73338;BME280;61575;49.908;35.556;2022-09-01T02:52:59;99017.97;;;18.00;65.84
73338;BME280;61575;49.908;35.556;2022-09-01T02:56:06;99028.88;;;17.94;65.90
73338;BME280;61575;49.908;35.556;2022-09-01T02:59:17;99024.94;;;17.90;66.08
73338;BME280;61575;49.908;35.556;2022-09-01T03:02:23;99028.53;;;17.84;66.29
73338;BME280;61575;49.908;35.556;2022-09-01T03:05:30;99032.13;;;17.77;66.53
73338;BME280;61575;49.908;35.556;2022-09-01T03:08:33;99024.44;;;17.74;66.59
73338;BME280;61575;49.908;35.556;2022-09-01T03:11:38;99039.50;;;17.64;66.81
73338;BME280;61575;49.908;35.556;2022-09-01T03:14:41;99038.06;;;17.61;66.90
73338;BME280;61575;49.908;35.556;2022-09-01T03:17:43;99031.03;;;17.54;67.18
73338;BME280;61575;49.908;35.556;2022-09-01T03:20:46;99035.47;;;17.48;67.33
73338;BME280;61575;49.908;35.556;2022-09-01T03:23:53;99041.75;;;17.42;67.47
73338;BME280;61575;49.908;35.556;2022-09-01T03:26:55;99036.78;;;17.39;67.92
73338;BME280;61575;49.908;35.556;2022-09-01T03:29:57;99035.31;;;17.36;67.89
73338;BME280;61575;49.908;35.556;2022-09-01T03:33:01;99036.59;;;17.34;67.98
73338;BME280;61575;49.908;35.556;2022-09-01T03:36:04;99038.03;;;17.36;67.81
73338;BME280;61575;49.908;35.556;2022-09-01T03:39:17;99038.69;;;17.32;68.05
73338;BME280;61575;49.908;35.556;2022-09-01T03:42:19;99043.06;;;17.33;67.99
73338;BME280;61575;49.908;35.556;2022-09-01T03:45:29;99043.06;;;17.33;67.87
73338;BME280;61575;49.908;35.556;2022-09-01T03:48:31;99045.16;;;17.31;68.16
73338;BME280;61575;49.908;35.556;2022-09-01T03:51:34;99043.72;;;17.28;68.12
73338;BME280;61575;49.908;35.556;2022-09-01T03:54:36;99050.63;;;17.24;68.97
73338;BME280;61575;49.908;35.556;2022-09-01T03:57:39;99057.41;;;17.40;68.01
73338;BME280;61575;49.908;35.556;2022-09-01T04:00:47;99055.47;;;17.47;68.23
73338;BME280;61575;49.908;35.556;2022-09-01T04:03:50;99050.19;;;17.59;67.72
73338;BME280;61575;49.908;35.556;2022-09-01T04:06:58;99054.09;;;17.69;67.44
73338;BME280;61575;49.908;35.556;2022-09-01T04:10:05;99052.94;;;17.84;67.17
73338;BME280;61575;49.908;35.556;2022-09-01T04:13:12;99052.38;;;18.00;66.62
73338;BME280;61575;49.908;35.556;2022-09-01T04:16:27;99056.66;;;18.14;66.26
73338;BME280;61575;49.908;35.556;2022-09-01T04:19:49;99057.63;;;18.20;66.39
73338;BME280;61575;49.908;35.556;2022-09-01T04:22:51;99051.16;;;18.21;65.34
73338;BME280;61575;49.908;35.556;2022-09-01T04:25:59;99061.41;;;18.19;65.59
73338;BME280;61575;49.908;35.556;2022-09-01T04:29:01;99062.06;;;18.14;65.50
73338;BME280;61575;49.908;35.556;2022-09-01T04:32:07;99061.06;;;18.08;65.79
73338;BME280;61575;49.908;35.556;2022-09-01T04:35:26;99066.78;;;18.25;65.51
73338;BME280;61575;49.908;35.556;2022-09-01T04:38:38;99059.31;;;18.39;64.84
73338;BME280;61575;49.908;35.556;2022-09-01T04:41:42;99062.94;;;18.51;64.23
73338;BME280;61575;49.908;35.556;2022-09-01T04:44:47;99063.59;;;18.71;63.81
73338;BME280;61575;49.908;35.556;2022-09-01T04:47:49;99066.38;;;18.83;63.03
73338;BME280;61575;49.908;35.556;2022-09-01T04:50:51;99065.94;;;18.86;62.57
73338;BME280;61575;49.908;35.556;2022-09-01T04:54:00;99065.91;;;19.04;62.25
73338;BME280;61575;49.908;35.556;2022-09-01T04:57:04;99055.84;;;19.23;61.63
73338;BME280;61575;49.908;35.556;2022-09-01T05:00:11;99059.06;;;19.32;61.08
73338;BME280;61575;49.908;35.556;2022-09-01T05:03:23;99063.81;;;19.36;60.80
73338;BME280;61575;49.908;35.556;2022-09-01T05:06:53;99067.63;;;19.47;60.65
73338;BME280;61575;49.908;35.556;2022-09-01T05:10:07;99064.28;;;19.63;60.00
73338;BME280;61575;49.908;35.556;2022-09-01T05:13:18;99063.72;;;19.73;59.11
73338;BME280;61575;49.908;35.556;2022-09-01T05:16:21;99061.84;;;19.85;58.27
73338;BME280;61575;49.908;35.556;2022-09-01T05:19:29;99063.78;;;20.08;57.46
73338;BME280;61575;49.908;35.556;2022-09-01T05:22:33;99053.25;;;20.23;56.53
73338;BME280;61575;49.908;35.556;2022-09-01T05:25:42;99056.81;;;20.47;55.90
73338;BME280;61575;49.908;35.556;2022-09-01T05:28:50;99051.72;;;20.62;55.45
73338;BME280;61575;49.908;35.556;2022-09-01T05:31:54;99063.78;;;20.66;54.34
73338;BME280;61575;49.908;35.556;2022-09-01T05:34:57;99063.41;;;20.75;53.91
73338;BME280;61575;49.908;35.556;2022-09-01T05:37:59;99051.50;;;20.92;52.86
73338;BME280;61575;49.908;35.556;2022-09-01T05:41:03;99058.81;;;21.03;51.52
73338;BME280;61575;49.908;35.556;2022-09-01T05:44:09;99061.72;;;21.25;51.35
73338;BME280;61575;49.908;35.556;2022-09-01T05:47:12;99064.84;;;21.46;50.82
73338;BME280;61575;49.908;35.556;2022-09-01T05:50:23;99065.03;;;21.56;48.78
73338;BME280;61575;49.908;35.556;2022-09-01T05:53:28;99059.50;;;21.67;48.96
73338;BME280;61575;49.908;35.556;2022-09-01T05:56:32;99061.34;;;21.95;48.05
73338;BME280;61575;49.908;35.556;2022-09-01T05:59:35;99063.75;;;21.92;46.63
73338;BME280;61575;49.908;35.556;2022-09-01T06:02:48;99064.19;;;22.17;47.04
73338;BME280;61575;49.908;35.556;2022-09-01T06:06:01;99063.75;;;22.42;45.80
73338;BME280;61575;49.908;35.556;2022-09-01T06:09:05;99062.25;;;22.51;44.73
73338;BME280;61575;49.908;35.556;2022-09-01T06:12:09;99069.44;;;22.57;43.11
73338;BME280;61575;49.908;35.556;2022-09-01T06:15:19;99071.22;;;22.69;42.30
73338;BME280;61575;49.908;35.556;2022-09-01T06:18:25;99071.22;;;22.85;41.52
73338;BME280;61575;49.908;35.556;2022-09-01T06:21:31;99068.47;;;23.07;41.52
73338;BME280;61575;49.908;35.556;2022-09-01T06:24:33;99062.41;;;23.27;41.93
73338;BME280;61575;49.908;35.556;2022-09-01T06:27:36;99062.69;;;23.52;40.88
73338;BME280;61575;49.908;35.556;2022-09-01T06:30:44;99062.19;;;23.55;39.49
73338;BME280;61575;49.908;35.556;2022-09-01T06:33:46;99063.91;;;23.62;38.04
73338;BME280;61575;49.908;35.556;2022-09-01T06:36:49;99064.53;;;23.69;38.05
73338;BME280;61575;49.908;35.556;2022-09-01T06:39:54;99067.34;;;23.79;37.77
73338;BME280;61575;49.908;35.556;2022-09-01T06:42:59;99065.56;;;23.95;37.63
73338;BME280;61575;49.908;35.556;2022-09-01T06:46:11;99078.31;;;24.11;37.24
73338;BME280;61575;49.908;35.556;2022-09-01T06:49:13;99072.66;;;24.22;36.95
73338;BME280;61575;49.908;35.556;2022-09-01T06:52:16;99072.50;;;24.34;37.38
73338;BME280;61575;49.908;35.556;2022-09-01T06:55:19;99073.09;;;24.41;36.25
73338;BME280;61575;49.908;35.556;2022-09-01T06:58:22;99066.47;;;24.37;36.06
73338;BME280;61575;49.908;35.556;2022-09-01T07:01:26;99079.03;;;24.70;36.12
73338;BME280;61575;49.908;35.556;2022-09-01T07:04:30;99086.25;;;24.92;35.43
73338;BME280;61575;49.908;35.556;2022-09-01T07:07:37;99082.94;;;24.84;35.11
73338;BME280;61575;49.908;35.556;2022-09-01T07:11:20;99077.03;;;25.08;35.18
73338;BME280;61575;49.908;35.556;2022-09-01T07:14:48;99076.78;;;25.14;34.60
73338;BME280;61575;49.908;35.556;2022-09-01T07:18:11;99083.66;;;25.17;33.50
73338;BME280;61575;49.908;35.556;2022-09-01T07:21:13;99068.34;;;25.36;34.20
73338;BME280;61575;49.908;35.556;2022-09-01T07:24:35;99078.41;;;25.05;33.33
73338;BME280;61575;49.908;35.556;2022-09-01T07:28:14;99076.88;;;25.45;33.59
73338;BME280;61575;49.908;35.556;2022-09-01T07:31:24;99073.34;;;25.60;32.98
73338;BME280;61575;49.908;35.556;2022-09-01T07:34:47;99061.88;;;25.83;33.75
73338;BME280;61575;49.908;35.556;2022-09-01T07:37:51;99057.78;;;25.91;32.60
73338;BME280;61575;49.908;35.556;2022-09-01T07:41:14;99064.88;;;26.02;33.02
73338;BME280;61575;49.908;35.556;2022-09-01T07:45:10;99056.91;;;26.26;32.22
73338;BME280;61575;49.908;35.556;2022-09-01T07:48:31;99052.00;;;25.97;31.69
73338;BME280;61575;49.908;35.556;2022-09-01T07:51:53;99056.59;;;25.46;32.90
73338;BME280;61575;49.908;35.556;2022-09-01T07:54:56;99049.47;;;26.26;32.79
73338;BME280;61575;49.908;35.556;2022-09-01T07:57:58;99048.09;;;26.49;31.88
73338;BME280;61575;49.908;35.556;2022-09-01T08:01:06;99039.03;;;26.49;31.56
73338;BME280;61575;49.908;35.556;2022-09-01T08:04:11;99039.81;;;26.64;31.17
73338;BME280;61575;49.908;35.556;2022-09-01T08:07:15;99041.41;;;26.81;32.08
73338;BME280;61575;49.908;35.556;2022-09-01T08:10:18;99036.94;;;27.05;31.22
73338;BME280;61575;49.908;35.556;2022-09-01T08:13:23;99041.84;;;27.13;30.54
73338;BME280;61575;49.908;35.556;2022-09-01T08:16:28;99035.50;;;27.18;30.69
73338;BME280;61575;49.908;35.556;2022-09-01T08:19:41;99031.47;;;27.00;30.53
73338;BME280;61575;49.908;35.556;2022-09-01T08:22:47;99037.38;;;27.27;29.99
73338;BME280;61575;49.908;35.556;2022-09-01T08:25:58;99038.41;;;26.72;29.92
73338;BME280;61575;49.908;35.556;2022-09-01T08:29:00;99030.78;;;26.54;30.60
73338;BME280;61575;49.908;35.556;2022-09-01T08:32:10;99038.22;;;26.38;30.80
73338;BME280;61575;49.908;35.556;2022-09-01T08:35:12;99029.41;;;26.31;30.96
73338;BME280;61575;49.908;35.556;2022-09-01T08:38:17;99035.44;;;26.53;31.28
73338;BME280;61575;49.908;35.556;2022-09-01T08:44:58;99027.97;;;27.38;30.19
73338;BME280;61575;49.908;35.556;2022-09-01T08:48:21;99028.31;;;27.27;29.25
73338;BME280;61575;49.908;35.556;2022-09-01T08:55:21;99031.78;;;26.83;29.51
73338;BME280;61575;49.908;35.556;2022-09-01T08:58:29;99034.53;;;26.83;30.13
73338;BME280;61575;49.908;35.556;2022-09-01T09:05:29;99022.53;;;27.23;29.14
73338;BME280;61575;49.908;35.556;2022-09-01T09:12:08;99024.13;;;27.79;29.45
73338;BME280;61575;49.908;35.556;2022-09-01T09:21:43;99036.41;;;27.03;29.13
73338;BME280;61575;49.908;35.556;2022-09-01T09:24:57;99031.50;;;27.44;29.03
73338;BME280;61575;49.908;35.556;2022-09-01T09:28:01;99028.50;;;27.40;29.10
73338;BME280;61575;49.908;35.556;2022-09-01T09:37:30;99034.34;;;26.54;29.99
73338;BME280;61575;49.908;35.556;2022-09-01T09:40:32;99019.53;;;26.35;29.99
73338;BME280;61575;49.908;35.556;2022-09-01T09:43:58;99023.41;;;26.08;29.75
73338;BME280;61575;49.908;35.556;2022-09-01T09:47:00;99034.09;;;26.25;30.55
73338;BME280;61575;49.908;35.556;2022-09-01T09:50:33;99029.97;;;25.62;29.61
73338;BME280;61575;49.908;35.556;2022-09-01T09:53:36;99025.09;;;25.94;30.26
73338;BME280;61575;49.908;35.556;2022-09-01T09:56:38;99020.63;;;26.29;30.20
73338;BME280;61575;49.908;35.556;2022-09-01T09:59:48;99020.09;;;26.42;29.34
73338;BME280;61575;49.908;35.556;2022-09-01T10:03:13;99018.44;;;26.31;29.21
73338;BME280;61575;49.908;35.556;2022-09-01T10:09:38;99025.13;;;26.99;28.59
73338;BME280;61575;49.908;35.556;2022-09-01T10:12:41;99013.56;;;27.02;28.81
73338;BME280;61575;49.908;35.556;2022-09-01T10:15:48;99013.88;;;26.91;28.10
73338;BME280;61575;49.908;35.556;2022-09-01T10:18:52;99015.88;;;26.70;29.10
73338;BME280;61575;49.908;35.556;2022-09-01T10:22:01;99012.84;;;26.71;29.08
73338;BME280;61575;49.908;35.556;2022-09-01T10:25:06;99005.03;;;27.04;29.34
73338;BME280;61575;49.908;35.556;2022-09-01T10:28:17;99012.16;;;27.10;27.45
73338;BME280;61575;49.908;35.556;2022-09-01T10:31:22;99015.06;;;27.29;28.51
73338;BME280;61575;49.908;35.556;2022-09-01T10:34:36;99017.25;;;27.32;28.03
73338;BME280;61575;49.908;35.556;2022-09-01T10:37:42;99020.16;;;26.96;28.23
73338;BME280;61575;49.908;35.556;2022-09-01T10:40:46;99014.94;;;26.95;27.89
73338;BME280;61575;49.908;35.556;2022-09-01T10:43:52;99007.28;;;26.97;28.28
73338;BME280;61575;49.908;35.556;2022-09-01T10:46:55;99010.22;;;27.10;28.39
73338;BME280;61575;49.908;35.556;2022-09-01T10:56:45;99000.50;;;26.64;28.53
73338;BME280;61575;49.908;35.556;2022-09-01T10:59:53;99010.69;;;26.58;29.28
73338;BME280;61575;49.908;35.556;2022-09-01T11:07:01;99005.78;;;26.25;29.77
73338;BME280;61575;49.908;35.556;2022-09-01T11:13:48;99021.75;;;26.18;30.33
73338;BME280;61575;49.908;35.556;2022-09-01T11:17:10;99007.97;;;26.53;29.73
73338;BME280;61575;49.908;35.556;2022-09-01T11:23:25;98999.75;;;26.12;29.66
73338;BME280;61575;49.908;35.556;2022-09-01T11:29:53;99008.88;;;25.98;29.73
73338;BME280;61575;49.908;35.556;2022-09-01T11:42:37;99012.19;;;25.79;30.06
73338;BME280;61575;49.908;35.556;2022-09-01T11:46:10;99000.06;;;25.55;30.00
73338;BME280;61575;49.908;35.556;2022-09-01T11:49:26;99015.47;;;25.71;30.24
73338;BME280;61575;49.908;35.556;2022-09-01T11:52:33;99002.28;;;25.84;30.20
73338;BME280;61575;49.908;35.556;2022-09-01T11:55:40;98995.72;;;25.79;30.09
73338;BME280;61575;49.908;35.556;2022-09-01T11:58:44;98994.03;;;25.63;30.86
73338;BME280;61575;49.908;35.556;2022-09-01T12:01:46;98997.03;;;25.62;30.70
73338;BME280;61575;49.908;35.556;2022-09-01T12:04:49;98988.25;;;25.55;30.77
73338;BME280;61575;49.908;35.556;2022-09-01T12:07:52;98988.81;;;25.57;29.87
73338;BME280;61575;49.908;35.556;2022-09-01T12:11:09;98980.53;;;25.26;29.64
73338;BME280;61575;49.908;35.556;2022-09-01T12:14:19;98981.06;;;25.18;30.21
73338;BME280;61575;49.908;35.556;2022-09-01T12:17:21;98986.06;;;25.52;30.19
73338;BME280;61575;49.908;35.556;2022-09-01T12:20:34;98984.16;;;25.77;30.67
73338;BME280;61575;49.908;35.556;2022-09-01T12:23:39;98978.31;;;26.20;29.66
73338;BME280;61575;49.908;35.556;2022-09-01T12:26:45;98980.50;;;26.23;28.90
73338;BME280;61575;49.908;35.556;2022-09-01T12:29:49;98976.38;;;26.30;28.74
73338;BME280;61575;49.908;35.556;2022-09-01T12:32:52;98985.22;;;26.07;28.54
73338;BME280;61575;49.908;35.556;2022-09-01T12:36:25;98979.50;;;25.93;29.45
73338;BME280;61575;49.908;35.556;2022-09-01T12:39:39;98989.13;;;25.80;29.40
73338;BME280;61575;49.908;35.556;2022-09-01T12:42:49;98979.78;;;25.81;29.10
73338;BME280;61575;49.908;35.556;2022-09-01T12:45:51;98978.94;;;25.86;29.55
73338;BME280;61575;49.908;35.556;2022-09-01T12:49:14;98988.56;;;25.94;29.07
73338;BME280;61575;49.908;35.556;2022-09-01T12:55:31;98983.91;;;25.74;29.56
73338;BME280;61575;49.908;35.556;2022-09-01T12:58:50;98978.97;;;25.76;29.85
73338;BME280;61575;49.908;35.556;2022-09-01T13:02:41;98979.75;;;25.46;30.25
73338;BME280;61575;49.908;35.556;2022-09-01T13:05:50;98984.66;;;25.39;30.07
73338;BME280;61575;49.908;35.556;2022-09-01T13:08:53;98978.88;;;25.15;29.88
73338;BME280;61575;49.908;35.556;2022-09-01T13:12:19;98980.50;;;25.06;30.71
73338;BME280;61575;49.908;35.556;2022-09-01T13:15:23;98980.78;;;25.09;30.46
73338;BME280;61575;49.908;35.556;2022-09-01T13:18:27;98979.31;;;24.86;30.60
73338;BME280;61575;49.908;35.556;2022-09-01T13:21:30;98977.19;;;25.09;30.66
73338;BME280;61575;49.908;35.556;2022-09-01T13:24:34;98980.19;;;25.02;30.85
73338;BME280;61575;49.908;35.556;2022-09-01T13:27:36;98979.66;;;25.05;30.51
73338;BME280;61575;49.908;35.556;2022-09-01T13:30:39;98976.09;;;25.10;30.21
73338;BME280;61575;49.908;35.556;2022-09-01T13:33:41;98967.06;;;25.09;30.62
73338;BME280;61575;49.908;35.556;2022-09-01T13:37:04;98959.91;;;24.98;30.67
73338;BME280;61575;49.908;35.556;2022-09-01T13:40:08;98956.00;;;24.94;30.83
73338;BME280;61575;49.908;35.556;2022-09-01T13:43:22;98961.50;;;24.94;30.69
73338;BME280;61575;49.908;35.556;2022-09-01T13:46:25;98961.56;;;25.04;30.75
73338;BME280;61575;49.908;35.556;2022-09-01T13:49:27;98966.13;;;24.78;30.47
73338;BME280;61575;49.908;35.556;2022-09-01T13:52:53;98958.69;;;24.74;30.97
73338;BME280;61575;49.908;35.556;2022-09-01T13:55:56;98961.78;;;24.93;31.44
73338;BME280;61575;49.908;35.556;2022-09-01T13:59:03;98973.00;;;24.86;30.78
73338;BME280;61575;49.908;35.556;2022-09-01T14:02:05;98963.97;;;24.96;30.46
73338;BME280;61575;49.908;35.556;2022-09-01T14:05:08;98973.63;;;25.08;30.72
73338;BME280;61575;49.908;35.556;2022-09-01T14:08:11;98968.69;;;25.10;30.59
73338;BME280;61575;49.908;35.556;2022-09-01T14:11:18;98967.88;;;25.15;30.36
73338;BME280;61575;49.908;35.556;2022-09-01T14:14:21;98978.56;;;25.01;30.30
73338;BME280;61575;49.908;35.556;2022-09-01T14:17:23;98979.66;;;25.00;30.36
73338;BME280;61575;49.908;35.556;2022-09-01T14:20:30;98977.47;;;25.02;30.43
73338;BME280;61575;49.908;35.556;2022-09-01T14:23:37;98991.19;;;25.07;29.99
73338;BME280;61575;49.908;35.556;2022-09-01T14:26:40;98999.47;;;24.60;29.93
73338;BME280;61575;49.908;35.556;2022-09-01T14:29:42;98989.91;;;24.68;29.52
73338;BME280;61575;49.908;35.556;2022-09-01T14:32:43;98993.81;;;24.82;29.23
73338;BME280;61575;49.908;35.556;2022-09-01T14:35:46;98991.53;;;24.59;29.86
73338;BME280;61575;49.908;35.556;2022-09-01T14:38:49;98999.00;;;24.78;29.70
73338;BME280;61575;49.908;35.556;2022-09-01T14:41:51;98985.47;;;24.57;29.60
73338;BME280;61575;49.908;35.556;2022-09-01T14:44:54;98995.31;;;24.47;29.90
73338;BME280;61575;49.908;35.556;2022-09-01T14:47:58;98997.75;;;24.44;30.24
73338;BME280;61575;49.908;35.556;2022-09-01T14:51:01;99003.97;;;24.29;29.79
73338;BME280;61575;49.908;35.556;2022-09-01T14:54:04;98994.38;;;24.27;29.77
73338;BME280;61575;49.908;35.556;2022-09-01T14:57:06;99014.16;;;24.02;30.34
73338;BME280;61575;49.908;35.556;2022-09-01T15:00:29;99006.31;;;23.78;30.41
73338;BME280;61575;49.908;35.556;2022-09-01T15:03:33;99013.22;;;23.54;30.61
73338;BME280;61575;49.908;35.556;2022-09-01T15:06:35;99015.03;;;23.48;31.04
73338;BME280;61575;49.908;35.556;2022-09-01T15:09:37;99019.28;;;23.34;31.15
73338;BME280;61575;49.908;35.556;2022-09-01T15:12:39;99009.00;;;23.19;31.43
73338;BME280;61575;49.908;35.556;2022-09-01T15:15:41;99023.91;;;23.07;31.55
73338;BME280;61575;49.908;35.556;2022-09-01T15:18:43;99021.06;;;22.97;31.74
73338;BME280;61575;49.908;35.556;2022-09-01T15:21:46;99021.50;;;22.88;31.68
73338;BME280;61575;49.908;35.556;2022-09-01T15:24:48;99010.66;;;22.77;32.41
73338;BME280;61575;49.908;35.556;2022-09-01T15:27:53;99025.03;;;22.67;32.63
73338;BME280;61575;49.908;35.556;2022-09-01T15:30:57;99020.50;;;22.56;32.94
73338;BME280;61575;49.908;35.556;2022-09-01T15:34:04;99016.94;;;22.55;32.97
73338;BME280;61575;49.908;35.556;2022-09-01T15:37:06;99031.03;;;22.47;32.99
73338;BME280;61575;49.908;35.556;2022-09-01T15:40:09;99030.91;;;22.37;33.56
73338;BME280;61575;49.908;35.556;2022-09-01T15:43:11;99042.66;;;22.21;33.73
73338;BME280;61575;49.908;35.556;2022-09-01T15:46:14;99042.34;;;22.17;33.69
73338;BME280;61575;49.908;35.556;2022-09-01T15:49:16;99040.19;;;22.03;33.56
73338;BME280;61575;49.908;35.556;2022-09-01T15:52:18;99044.31;;;21.88;33.55
73338;BME280;61575;49.908;35.556;2022-09-01T15:55:29;99047.63;;;21.90;33.84
73338;BME280;61575;49.908;35.556;2022-09-01T15:58:33;99055.97;;;21.84;33.74
73338;BME280;61575;49.908;35.556;2022-09-01T16:01:55;99046.53;;;21.75;33.90
73338;BME280;61575;49.908;35.556;2022-09-01T16:04:58;99054.88;;;21.68;33.94
73338;BME280;61575;49.908;35.556;2022-09-01T16:08:01;99059.66;;;21.61;34.33
73338;BME280;61575;49.908;35.556;2022-09-01T16:11:08;99062.28;;;21.56;34.22
73338;BME280;61575;49.908;35.556;2022-09-01T16:14:10;99064.75;;;21.41;34.55
73338;BME280;61575;49.908;35.556;2022-09-01T16:17:19;99069.28;;;21.35;34.45
73338;BME280;61575;49.908;35.556;2022-09-01T16:20:48;99071.22;;;21.23;34.92
73338;BME280;61575;49.908;35.556;2022-09-01T16:23:52;99073.34;;;21.49;37.16
73338;BME280;61575;49.908;35.556;2022-09-01T16:26:55;99077.94;;;21.77;40.10
73338;BME280;61575;49.908;35.556;2022-09-01T16:30:02;99087.91;;;22.00;37.03
73338;BME280;61575;49.908;35.556;2022-09-01T16:33:05;99084.22;;;22.06;37.52
73338;BME280;61575;49.908;35.556;2022-09-01T16:36:33;99099.69;;;22.17;35.90
73338;BME280;61575;49.908;35.556;2022-09-01T16:39:54;99110.94;;;22.21;36.46
73338;BME280;61575;49.908;35.556;2022-09-01T16:43:05;99106.53;;;22.20;37.96
73338;BME280;61575;49.908;35.556;2022-09-01T16:49:45;99119.53;;;22.29;37.17
73338;BME280;61575;49.908;35.556;2022-09-01T16:56:26;99128.06;;;22.16;35.17
73338;BME280;61575;49.908;35.556;2022-09-01T17:00:08;99137.25;;;22.10;37.38
73338;BME280;61575;49.908;35.556;2022-09-01T17:03:18;99136.31;;;22.05;36.87
73338;BME280;61575;49.908;35.556;2022-09-01T17:13:31;99141.47;;;21.89;36.61
73338;BME280;61575;49.908;35.556;2022-09-01T17:16:41;99144.69;;;21.86;37.78
73338;BME280;61575;49.908;35.556;2022-09-01T17:19:45;99151.81;;;21.87;37.30
73338;BME280;61575;49.908;35.556;2022-09-01T17:22:56;99162.78;;;21.76;37.58
73338;BME280;61575;49.908;35.556;2022-09-01T17:26:08;99170.97;;;21.76;36.68
73338;BME280;61575;49.908;35.556;2022-09-01T17:29:19;99166.94;;;21.78;36.08
73338;BME280;61575;49.908;35.556;2022-09-01T17:46:44;99170.16;;;21.35;36.83
73338;BME280;61575;49.908;35.556;2022-09-01T18:00:11;99179.78;;;21.14;36.91
73338;BME280;61575;49.908;35.556;2022-09-01T18:10:49;99171.97;;;21.06;37.87